sensor_id;sensor_type;location;lat;lon;timestamp;P1;durP1;ratioP1;P2;durP2;ratioP2
66487;SDS011;53304;54.550;18.526;2022-10-31T00:00:58;9.20;;;5.18;;
66487;SDS011;53304;54.550;18.526;2022-10-31T00:03:26;8.68;;;4.90;;
66487;SDS011;53304;54.550;18.526;2022-10-31T00:05:54;7.60;;;4.82;;
66487;SDS011;53304;54.550;18.526;2022-10-31T00:08:22;9.30;;;5.07;;
66487;SDS011;53304;54.550;18.526;2022-10-31T00:10:47;8.90;;;4.75;;
66487;SDS011;53304;54.550;18.526;2022-10-31T00:13:15;8.48;;;4.75;;
66487;SDS011;53304;54.550;18.526;2022-10-31T00:15:40;8.15;;;4.68;;
66487;SDS011;53304;54.550;18.526;2022-10-31T00:18:08;8.48;;;4.50;;
66487;SDS011;53304;54.550;18.526;2022-10-31T00:20:35;7.85;;;4.70;;
66487;SDS011;53304;54.550;18.526;2022-10-31T00:23:04;8.40;;;4.80;;
66487;SDS011;53304;54.550;18.526;2022-10-31T00:25:32;7.78;;;4.47;;
66487;SDS011;53304;54.550;18.526;2022-10-31T00:28:04;8.45;;;4.85;;
66487;SDS011;53304;54.550;18.526;2022-10-31T00:30:31;8.50;;;4.68;;
66487;SDS011;53304;54.550;18.526;2022-10-31T00:32:56;8.27;;;5.13;;
66487;SDS011;53304;54.550;18.526;2022-10-31T00:35:22;8.63;;;4.85;;
66487;SDS011;53304;54.550;18.526;2022-10-31T00:37:52;8.20;;;4.75;;
66487;SDS011;53304;54.550;18.526;2022-10-31T00:40:22;8.25;;;4.95;;
66487;SDS011;53304;54.550;18.526;2022-10-31T00:42:50;9.25;;;5.13;;
66487;SDS011;53304;54.550;18.526;2022-10-31T00:45:15;7.22;;;4.55;;
66487;SDS011;53304;54.550;18.526;2022-10-31T00:47:43;9.80;;;4.97;;
66487;SDS011;53304;54.550;18.526;2022-10-31T00:50:08;9.35;;;5.03;;
66487;SDS011;53304;54.550;18.526;2022-10-31T00:52:34;6.85;;;4.57;;
66487;SDS011;53304;54.550;18.526;2022-10-31T00:55:02;8.65;;;4.70;;
66487;SDS011;53304;54.550;18.526;2022-10-31T00:57:30;9.15;;;4.72;;
66487;SDS011;53304;54.550;18.526;2022-10-31T00:59:55;8.82;;;5.35;;
66487;SDS011;53304;54.550;18.526;2022-10-31T01:02:25;8.20;;;5.30;;
66487;SDS011;53304;54.550;18.526;2022-10-31T01:04:51;9.52;;;4.82;;
66487;SDS011;53304;54.550;18.526;2022-10-31T01:07:16;9.75;;;5.30;;
66487;SDS011;53304;54.550;18.526;2022-10-31T01:09:42;9.70;;;5.40;;
66487;SDS011;53304;54.550;18.526;2022-10-31T01:12:09;8.32;;;4.90;;
66487;SDS011;53304;54.550;18.526;2022-10-31T01:14:37;8.68;;;5.20;;
66487;SDS011;53304;54.550;18.526;2022-10-31T01:17:09;9.00;;;5.28;;
66487;SDS011;53304;54.550;18.526;2022-10-31T01:19:37;10.43;;;5.55;;
66487;SDS011;53304;54.550;18.526;2022-10-31T01:22:02;9.48;;;5.03;;
66487;SDS011;53304;54.550;18.526;2022-10-31T01:24:28;10.38;;;5.88;;
66487;SDS011;53304;54.550;18.526;2022-10-31T01:26:56;8.60;;;5.50;;
66487;SDS011;53304;54.550;18.526;2022-10-31T01:29:21;9.40;;;5.63;;
66487;SDS011;53304;54.550;18.526;2022-10-31T01:31:47;10.90;;;5.68;;
66487;SDS011;53304;54.550;18.526;2022-10-31T01:34:15;9.65;;;5.47;;
66487;SDS011;53304;54.550;18.526;2022-10-31T01:36:42;10.73;;;6.15;;
66487;SDS011;53304;54.550;18.526;2022-10-31T01:39:11;8.90;;;5.22;;
66487;SDS011;53304;54.550;18.526;2022-10-31T01:41:44;8.27;;;5.20;;
66487;SDS011;53304;54.550;18.526;2022-10-31T01:46:42;10.98;;;5.60;;
66487;SDS011;53304;54.550;18.526;2022-10-31T01:49:09;9.77;;;5.50;;
66487;SDS011;53304;54.550;18.526;2022-10-31T01:51:38;9.00;;;5.50;;
66487;SDS011;53304;54.550;18.526;2022-10-31T01:54:14;11.10;;;5.47;;
66487;SDS011;53304;54.550;18.526;2022-10-31T01:56:44;10.10;;;5.28;;
66487;SDS011;53304;54.550;18.526;2022-10-31T01:59:13;9.55;;;5.80;;
66487;SDS011;53304;54.550;18.526;2022-10-31T02:01:42;8.70;;;5.28;;
66487;SDS011;53304;54.550;18.526;2022-10-31T02:04:07;9.32;;;5.60;;
66487;SDS011;53304;54.550;18.526;2022-10-31T02:09:23;9.90;;;5.53;;
66487;SDS011;53304;54.550;18.526;2022-10-31T02:11:54;10.98;;;5.95;;
66487;SDS011;53304;54.550;18.526;2022-10-31T02:14:24;10.57;;;5.65;;
66487;SDS011;53304;54.550;18.526;2022-10-31T02:16:55;8.82;;;5.78;;
66487;SDS011;53304;54.550;18.526;2022-10-31T02:19:27;10.20;;;5.88;;
66487;SDS011;53304;54.550;18.526;2022-10-31T02:22:15;8.95;;;5.45;;
66487;SDS011;53304;54.550;18.526;2022-10-31T02:38:29;9.82;;;5.85;;
66487;SDS011;53304;54.550;18.526;2022-10-31T02:41:10;9.98;;;6.25;;
66487;SDS011;53304;54.550;18.526;2022-10-31T02:49:11;10.02;;;5.55;;
66487;SDS011;53304;54.550;18.526;2022-10-31T02:51:58;9.25;;;5.80;;
66487;SDS011;53304;54.550;18.526;2022-10-31T02:54:24;10.02;;;6.05;;
66487;SDS011;53304;54.550;18.526;2022-10-31T02:56:54;10.45;;;6.03;;
66487;SDS011;53304;54.550;18.526;2022-10-31T02:59:26;10.15;;;5.97;;
66487;SDS011;53304;54.550;18.526;2022-10-31T03:04:40;12.63;;;6.53;;
66487;SDS011;53304;54.550;18.526;2022-10-31T03:12:30;10.85;;;6.25;;
66487;SDS011;53304;54.550;18.526;2022-10-31T03:15:11;11.52;;;6.45;;
66487;SDS011;53304;54.550;18.526;2022-10-31T03:17:41;12.10;;;6.65;;
66487;SDS011;53304;54.550;18.526;2022-10-31T03:20:14;11.40;;;6.60;;
66487;SDS011;53304;54.550;18.526;2022-10-31T03:22:41;11.85;;;7.45;;
66487;SDS011;53304;54.550;18.526;2022-10-31T03:25:07;14.38;;;7.68;;
66487;SDS011;53304;54.550;18.526;2022-10-31T03:27:36;12.65;;;7.68;;
66487;SDS011;53304;54.550;18.526;2022-10-31T03:30:03;13.20;;;7.75;;
66487;SDS011;53304;54.550;18.526;2022-10-31T03:35:08;10.48;;;7.25;;
66487;SDS011;53304;54.550;18.526;2022-10-31T03:37:37;14.13;;;8.23;;
66487;SDS011;53304;54.550;18.526;2022-10-31T03:40:06;12.07;;;7.50;;
66487;SDS011;53304;54.550;18.526;2022-10-31T03:42:37;12.20;;;7.43;;
66487;SDS011;53304;54.550;18.526;2022-10-31T03:47:35;12.40;;;7.72;;
66487;SDS011;53304;54.550;18.526;2022-10-31T03:50:02;13.70;;;7.40;;
66487;SDS011;53304;54.550;18.526;2022-10-31T03:52:34;12.90;;;7.97;;
66487;SDS011;53304;54.550;18.526;2022-10-31T03:58:14;13.82;;;8.20;;
66487;SDS011;53304;54.550;18.526;2022-10-31T04:00:40;14.23;;;8.10;;
66487;SDS011;53304;54.550;18.526;2022-10-31T04:03:26;12.85;;;8.07;;
66487;SDS011;53304;54.550;18.526;2022-10-31T04:05:56;13.23;;;8.32;;
66487;SDS011;53304;54.550;18.526;2022-10-31T04:08:24;15.00;;;8.20;;
66487;SDS011;53304;54.550;18.526;2022-10-31T04:10:57;13.48;;;8.48;;
66487;SDS011;53304;54.550;18.526;2022-10-31T04:13:27;16.45;;;8.43;;
66487;SDS011;53304;54.550;18.526;2022-10-31T04:15:56;15.48;;;8.57;;
66487;SDS011;53304;54.550;18.526;2022-10-31T04:18:22;15.43;;;8.02;;
66487;SDS011;53304;54.550;18.526;2022-10-31T04:20:48;14.38;;;8.52;;
66487;SDS011;53304;54.550;18.526;2022-10-31T04:23:24;15.15;;;8.32;;
66487;SDS011;53304;54.550;18.526;2022-10-31T04:25:52;14.75;;;8.63;;
66487;SDS011;53304;54.550;18.526;2022-10-31T04:28:22;11.80;;;8.65;;
66487;SDS011;53304;54.550;18.526;2022-10-31T04:30:48;14.40;;;8.80;;
66487;SDS011;53304;54.550;18.526;2022-10-31T04:33:14;15.45;;;9.00;;
66487;SDS011;53304;54.550;18.526;2022-10-31T04:35:43;15.85;;;8.50;;
66487;SDS011;53304;54.550;18.526;2022-10-31T04:38:08;16.50;;;9.02;;
66487;SDS011;53304;54.550;18.526;2022-10-31T04:40:33;15.48;;;8.95;;
66487;SDS011;53304;54.550;18.526;2022-10-31T04:42:59;15.35;;;9.13;;
66487;SDS011;53304;54.550;18.526;2022-10-31T04:45:24;15.60;;;9.20;;
66487;SDS011;53304;54.550;18.526;2022-10-31T04:47:50;16.00;;;8.90;;
66487;SDS011;53304;54.550;18.526;2022-10-31T04:50:15;14.38;;;9.02;;
66487;SDS011;53304;54.550;18.526;2022-10-31T04:52:44;14.40;;;8.73;;
66487;SDS011;53304;54.550;18.526;2022-10-31T04:55:11;14.30;;;8.50;;
66487;SDS011;53304;54.550;18.526;2022-10-31T04:57:41;14.98;;;8.82;;
66487;SDS011;53304;54.550;18.526;2022-10-31T05:00:07;15.88;;;9.00;;
66487;SDS011;53304;54.550;18.526;2022-10-31T05:02:43;16.15;;;9.10;;
66487;SDS011;53304;54.550;18.526;2022-10-31T05:05:11;14.35;;;8.75;;
66487;SDS011;53304;54.550;18.526;2022-10-31T05:07:41;15.95;;;8.98;;
66487;SDS011;53304;54.550;18.526;2022-10-31T05:10:08;15.18;;;8.75;;
66487;SDS011;53304;54.550;18.526;2022-10-31T05:12:35;14.73;;;8.90;;
66487;SDS011;53304;54.550;18.526;2022-10-31T05:15:04;15.25;;;9.07;;
66487;SDS011;53304;54.550;18.526;2022-10-31T05:17:30;16.30;;;9.23;;
66487;SDS011;53304;54.550;18.526;2022-10-31T05:19:56;15.30;;;8.50;;
66487;SDS011;53304;54.550;18.526;2022-10-31T05:22:22;13.82;;;8.82;;
66487;SDS011;53304;54.550;18.526;2022-10-31T05:24:52;13.85;;;8.40;;
66487;SDS011;53304;54.550;18.526;2022-10-31T05:27:17;14.40;;;8.70;;
66487;SDS011;53304;54.550;18.526;2022-10-31T05:29:43;15.93;;;8.73;;
66487;SDS011;53304;54.550;18.526;2022-10-31T05:32:08;14.30;;;8.85;;
66487;SDS011;53304;54.550;18.526;2022-10-31T05:34:34;12.68;;;7.97;;
66487;SDS011;53304;54.550;18.526;2022-10-31T05:37:04;14.25;;;8.48;;
66487;SDS011;53304;54.550;18.526;2022-10-31T05:39:32;16.15;;;8.93;;
66487;SDS011;53304;54.550;18.526;2022-10-31T05:42:00;13.82;;;8.75;;
66487;SDS011;53304;54.550;18.526;2022-10-31T05:44:25;17.05;;;8.82;;
66487;SDS011;53304;54.550;18.526;2022-10-31T05:46:53;14.48;;;8.57;;
66487;SDS011;53304;54.550;18.526;2022-10-31T05:49:21;13.48;;;8.10;;
66487;SDS011;53304;54.550;18.526;2022-10-31T05:51:49;16.05;;;8.82;;
66487;SDS011;53304;54.550;18.526;2022-10-31T05:54:20;13.35;;;8.25;;
66487;SDS011;53304;54.550;18.526;2022-10-31T05:56:47;13.50;;;8.57;;
66487;SDS011;53304;54.550;18.526;2022-10-31T05:59:15;12.88;;;7.90;;
66487;SDS011;53304;54.550;18.526;2022-10-31T06:01:40;13.40;;;8.32;;
66487;SDS011;53304;54.550;18.526;2022-10-31T06:04:06;13.32;;;8.10;;
66487;SDS011;53304;54.550;18.526;2022-10-31T06:06:39;14.90;;;8.55;;
66487;SDS011;53304;54.550;18.526;2022-10-31T06:09:04;13.35;;;8.10;;
66487;SDS011;53304;54.550;18.526;2022-10-31T06:11:30;13.55;;;8.10;;
66487;SDS011;53304;54.550;18.526;2022-10-31T06:13:58;14.20;;;7.80;;
66487;SDS011;53304;54.550;18.526;2022-10-31T06:16:23;12.38;;;8.00;;
66487;SDS011;53304;54.550;18.526;2022-10-31T06:18:48;13.05;;;8.02;;
66487;SDS011;53304;54.550;18.526;2022-10-31T06:21:14;12.88;;;8.32;;
66487;SDS011;53304;54.550;18.526;2022-10-31T06:23:39;13.77;;;8.63;;
66487;SDS011;53304;54.550;18.526;2022-10-31T06:26:07;11.95;;;7.53;;
66487;SDS011;53304;54.550;18.526;2022-10-31T06:28:32;12.18;;;7.72;;
66487;SDS011;53304;54.550;18.526;2022-10-31T06:30:58;12.95;;;7.47;;
66487;SDS011;53304;54.550;18.526;2022-10-31T06:33:23;13.32;;;8.20;;
66487;SDS011;53304;54.550;18.526;2022-10-31T06:35:48;13.68;;;7.80;;
66487;SDS011;53304;54.550;18.526;2022-10-31T06:38:14;12.05;;;7.10;;
66487;SDS011;53304;54.550;18.526;2022-10-31T06:40:39;10.95;;;7.35;;
66487;SDS011;53304;54.550;18.526;2022-10-31T06:43:07;14.38;;;7.80;;
66487;SDS011;53304;54.550;18.526;2022-10-31T06:45:32;12.80;;;8.00;;
66487;SDS011;53304;54.550;18.526;2022-10-31T06:48:01;11.73;;;7.70;;
66487;SDS011;53304;54.550;18.526;2022-10-31T06:50:29;12.77;;;7.75;;
66487;SDS011;53304;54.550;18.526;2022-10-31T06:52:57;12.07;;;7.40;;
66487;SDS011;53304;54.550;18.526;2022-10-31T06:55:25;12.18;;;7.40;;
66487;SDS011;53304;54.550;18.526;2022-10-31T07:00:19;11.05;;;7.05;;
66487;SDS011;53304;54.550;18.526;2022-10-31T07:05:28;12.40;;;7.55;;
66487;SDS011;53304;54.550;18.526;2022-10-31T07:08:02;12.25;;;7.75;;
66487;SDS011;53304;54.550;18.526;2022-10-31T07:10:30;12.90;;;7.63;;
66487;SDS011;53304;54.550;18.526;2022-10-31T07:12:59;12.18;;;7.57;;
66487;SDS011;53304;54.550;18.526;2022-10-31T07:15:27;10.98;;;7.45;;
66487;SDS011;53304;54.550;18.526;2022-10-31T07:17:54;12.27;;;7.25;;
66487;SDS011;53304;54.550;18.526;2022-10-31T07:20:29;11.73;;;7.30;;
66487;SDS011;53304;54.550;18.526;2022-10-31T07:22:55;10.05;;;7.03;;
66487;SDS011;53304;54.550;18.526;2022-10-31T07:25:21;10.98;;;7.38;;
66487;SDS011;53304;54.550;18.526;2022-10-31T07:27:50;10.52;;;7.05;;
66487;SDS011;53304;54.550;18.526;2022-10-31T07:30:18;12.13;;;7.10;;
66487;SDS011;53304;54.550;18.526;2022-10-31T07:32:47;11.05;;;7.22;;
66487;SDS011;53304;54.550;18.526;2022-10-31T07:35:17;11.80;;;7.13;;
66487;SDS011;53304;54.550;18.526;2022-10-31T07:40:12;11.00;;;6.60;;
66487;SDS011;53304;54.550;18.526;2022-10-31T07:42:43;12.63;;;7.65;;
66487;SDS011;53304;54.550;18.526;2022-10-31T07:45:10;10.80;;;7.00;;
66487;SDS011;53304;54.550;18.526;2022-10-31T07:47:47;10.95;;;7.10;;
66487;SDS011;53304;54.550;18.526;2022-10-31T07:50:15;12.15;;;7.00;;
66487;SDS011;53304;54.550;18.526;2022-10-31T07:52:45;12.55;;;7.47;;
66487;SDS011;53304;54.550;18.526;2022-10-31T07:55:13;10.75;;;6.85;;
66487;SDS011;53304;54.550;18.526;2022-10-31T07:57:39;11.38;;;7.47;;
66487;SDS011;53304;54.550;18.526;2022-10-31T08:00:07;12.57;;;7.97;;
66487;SDS011;53304;54.550;18.526;2022-10-31T08:02:34;11.43;;;7.90;;
66487;SDS011;53304;54.550;18.526;2022-10-31T08:05:00;11.45;;;7.75;;
66487;SDS011;53304;54.550;18.526;2022-10-31T08:07:26;11.60;;;7.88;;
66487;SDS011;53304;54.550;18.526;2022-10-31T08:09:52;11.82;;;7.18;;
66487;SDS011;53304;54.550;18.526;2022-10-31T08:12:18;12.10;;;7.32;;
66487;SDS011;53304;54.550;18.526;2022-10-31T08:14:45;11.00;;;7.43;;
66487;SDS011;53304;54.550;18.526;2022-10-31T08:17:11;11.65;;;7.30;;
66487;SDS011;53304;54.550;18.526;2022-10-31T08:19:36;12.25;;;7.60;;
66487;SDS011;53304;54.550;18.526;2022-10-31T08:22:07;11.55;;;7.30;;
66487;SDS011;53304;54.550;18.526;2022-10-31T08:24:32;11.98;;;7.75;;
66487;SDS011;53304;54.550;18.526;2022-10-31T08:26:59;12.00;;;7.72;;
66487;SDS011;53304;54.550;18.526;2022-10-31T08:29:27;12.35;;;7.60;;
66487;SDS011;53304;54.550;18.526;2022-10-31T08:31:57;12.18;;;7.53;;
66487;SDS011;53304;54.550;18.526;2022-10-31T08:34:25;12.50;;;7.78;;
66487;SDS011;53304;54.550;18.526;2022-10-31T08:36:51;11.65;;;7.57;;
66487;SDS011;53304;54.550;18.526;2022-10-31T08:39:17;11.32;;;7.30;;
66487;SDS011;53304;54.550;18.526;2022-10-31T08:41:44;12.10;;;7.70;;
66487;SDS011;53304;54.550;18.526;2022-10-31T08:44:12;12.05;;;7.78;;
66487;SDS011;53304;54.550;18.526;2022-10-31T08:46:40;12.50;;;7.90;;
66487;SDS011;53304;54.550;18.526;2022-10-31T08:49:06;12.88;;;8.23;;
66487;SDS011;53304;54.550;18.526;2022-10-31T08:51:33;11.93;;;7.70;;
66487;SDS011;53304;54.550;18.526;2022-10-31T08:53:59;12.45;;;7.85;;
66487;SDS011;53304;54.550;18.526;2022-10-31T08:56:24;13.20;;;8.40;;
66487;SDS011;53304;54.550;18.526;2022-10-31T08:58:54;13.20;;;8.43;;
66487;SDS011;53304;54.550;18.526;2022-10-31T09:01:20;13.90;;;8.25;;
66487;SDS011;53304;54.550;18.526;2022-10-31T09:03:45;13.75;;;8.05;;
66487;SDS011;53304;54.550;18.526;2022-10-31T09:06:13;15.27;;;8.02;;
66487;SDS011;53304;54.550;18.526;2022-10-31T09:08:39;14.25;;;8.57;;
66487;SDS011;53304;54.550;18.526;2022-10-31T09:11:04;13.15;;;8.52;;
66487;SDS011;53304;54.550;18.526;2022-10-31T09:13:32;13.73;;;8.05;;
66487;SDS011;53304;54.550;18.526;2022-10-31T09:15:58;13.77;;;8.90;;
66487;SDS011;53304;54.550;18.526;2022-10-31T09:18:24;13.32;;;8.50;;
66487;SDS011;53304;54.550;18.526;2022-10-31T09:20:52;13.75;;;8.35;;
66487;SDS011;53304;54.550;18.526;2022-10-31T09:23:19;14.60;;;8.95;;
66487;SDS011;53304;54.550;18.526;2022-10-31T09:25:48;13.43;;;8.55;;
66487;SDS011;53304;54.550;18.526;2022-10-31T09:28:18;15.30;;;8.68;;
66487;SDS011;53304;54.550;18.526;2022-10-31T09:30:49;14.50;;;8.50;;
66487;SDS011;53304;54.550;18.526;2022-10-31T09:33:15;13.32;;;8.32;;
66487;SDS011;53304;54.550;18.526;2022-10-31T09:35:41;14.63;;;9.02;;
66487;SDS011;53304;54.550;18.526;2022-10-31T09:38:13;14.30;;;9.02;;
66487;SDS011;53304;54.550;18.526;2022-10-31T09:40:48;11.75;;;8.23;;
66487;SDS011;53304;54.550;18.526;2022-10-31T09:43:36;16.60;;;9.55;;
66487;SDS011;53304;54.550;18.526;2022-10-31T09:46:08;16.02;;;9.55;;
66487;SDS011;53304;54.550;18.526;2022-10-31T09:48:48;15.48;;;9.25;;
66487;SDS011;53304;54.550;18.526;2022-10-31T09:51:24;16.42;;;10.07;;
66487;SDS011;53304;54.550;18.526;2022-10-31T09:54:05;17.63;;;10.05;;
66487;SDS011;53304;54.550;18.526;2022-10-31T09:56:34;16.20;;;9.65;;
66487;SDS011;53304;54.550;18.526;2022-10-31T09:59:01;15.52;;;9.45;;
66487;SDS011;53304;54.550;18.526;2022-10-31T10:06:59;19.52;;;10.40;;
66487;SDS011;53304;54.550;18.526;2022-10-31T10:09:28;15.23;;;9.80;;
66487;SDS011;53304;54.550;18.526;2022-10-31T10:25:37;14.63;;;9.48;;
66487;SDS011;53304;54.550;18.526;2022-10-31T10:28:20;16.42;;;10.40;;
66487;SDS011;53304;54.550;18.526;2022-10-31T10:31:18;16.33;;;10.43;;
66487;SDS011;53304;54.550;18.526;2022-10-31T10:36:22;17.88;;;10.35;;
66487;SDS011;53304;54.550;18.526;2022-10-31T10:38:52;16.70;;;9.77;;
66487;SDS011;53304;54.550;18.526;2022-10-31T10:41:21;16.85;;;9.88;;
66487;SDS011;53304;54.550;18.526;2022-10-31T10:43:53;17.63;;;10.15;;
66487;SDS011;53304;54.550;18.526;2022-10-31T10:49:28;15.80;;;9.48;;
66487;SDS011;53304;54.550;18.526;2022-10-31T10:51:59;17.07;;;9.97;;
66487;SDS011;53304;54.550;18.526;2022-10-31T10:59:38;17.90;;;10.38;;
66487;SDS011;53304;54.550;18.526;2022-10-31T11:02:08;18.48;;;10.40;;
66487;SDS011;53304;54.550;18.526;2022-10-31T11:04:47;16.58;;;10.32;;
66487;SDS011;53304;54.550;18.526;2022-10-31T11:07:21;16.92;;;9.73;;
66487;SDS011;53304;54.550;18.526;2022-10-31T11:09:49;15.90;;;9.77;;
66487;SDS011;53304;54.550;18.526;2022-10-31T11:14:51;14.90;;;9.75;;
66487;SDS011;53304;54.550;18.526;2022-10-31T11:17:32;16.15;;;9.93;;
66487;SDS011;53304;54.550;18.526;2022-10-31T11:22:36;14.63;;;9.43;;
66487;SDS011;53304;54.550;18.526;2022-10-31T11:25:14;15.30;;;9.73;;
66487;SDS011;53304;54.550;18.526;2022-10-31T11:27:45;15.32;;;9.60;;
66487;SDS011;53304;54.550;18.526;2022-10-31T11:30:12;16.90;;;10.25;;
66487;SDS011;53304;54.550;18.526;2022-10-31T11:32:42;17.30;;;9.82;;
66487;SDS011;53304;54.550;18.526;2022-10-31T11:35:13;15.68;;;9.82;;
66487;SDS011;53304;54.550;18.526;2022-10-31T11:37:41;15.02;;;9.90;;
66487;SDS011;53304;54.550;18.526;2022-10-31T11:40:15;16.10;;;9.75;;
66487;SDS011;53304;54.550;18.526;2022-10-31T11:42:47;15.95;;;10.10;;
66487;SDS011;53304;54.550;18.526;2022-10-31T11:47:40;15.63;;;9.85;;
66487;SDS011;53304;54.550;18.526;2022-10-31T11:50:10;15.98;;;10.18;;
66487;SDS011;53304;54.550;18.526;2022-10-31T11:52:39;14.73;;;10.07;;
66487;SDS011;53304;54.550;18.526;2022-10-31T11:57:47;16.85;;;10.07;;
66487;SDS011;53304;54.550;18.526;2022-10-31T12:00:32;15.70;;;10.00;;
66487;SDS011;53304;54.550;18.526;2022-10-31T12:05:39;15.18;;;9.27;;
66487;SDS011;53304;54.550;18.526;2022-10-31T12:08:07;14.60;;;9.43;;
66487;SDS011;53304;54.550;18.526;2022-10-31T12:10:38;15.35;;;9.65;;
66487;SDS011;53304;54.550;18.526;2022-10-31T12:16:18;16.58;;;10.30;;
66487;SDS011;53304;54.550;18.526;2022-10-31T12:18:49;14.77;;;9.65;;
66487;SDS011;53304;54.550;18.526;2022-10-31T12:24:25;16.40;;;9.77;;
66487;SDS011;53304;54.550;18.526;2022-10-31T12:29:51;15.00;;;9.60;;
66487;SDS011;53304;54.550;18.526;2022-10-31T12:32:23;14.48;;;9.05;;
66487;SDS011;53304;54.550;18.526;2022-10-31T12:35:02;14.40;;;9.35;;
66487;SDS011;53304;54.550;18.526;2022-10-31T12:45:56;15.13;;;8.95;;
66487;SDS011;53304;54.550;18.526;2022-10-31T12:56:35;13.10;;;8.68;;
66487;SDS011;53304;54.550;18.526;2022-10-31T12:59:40;14.18;;;9.07;;
66487;SDS011;53304;54.550;18.526;2022-10-31T13:05:11;14.45;;;9.10;;
66487;SDS011;53304;54.550;18.526;2022-10-31T13:07:49;13.27;;;8.60;;
66487;SDS011;53304;54.550;18.526;2022-10-31T13:10:21;15.02;;;9.30;;
66487;SDS011;53304;54.550;18.526;2022-10-31T13:12:55;13.52;;;8.80;;
66487;SDS011;53304;54.550;18.526;2022-10-31T13:15:46;13.60;;;9.13;;
66487;SDS011;53304;54.550;18.526;2022-10-31T13:18:16;13.32;;;8.82;;
66487;SDS011;53304;54.550;18.526;2022-10-31T13:20:48;14.70;;;8.82;;
66487;SDS011;53304;54.550;18.526;2022-10-31T13:23:18;14.80;;;9.05;;
66487;SDS011;53304;54.550;18.526;2022-10-31T13:25:47;13.13;;;8.93;;
66487;SDS011;53304;54.550;18.526;2022-10-31T13:31:09;13.70;;;8.50;;
66487;SDS011;53304;54.550;18.526;2022-10-31T13:46:40;13.48;;;8.90;;
66487;SDS011;53304;54.550;18.526;2022-10-31T13:51:53;13.05;;;8.57;;
66487;SDS011;53304;54.550;18.526;2022-10-31T13:54:50;13.75;;;8.88;;
66487;SDS011;53304;54.550;18.526;2022-10-31T13:57:42;13.68;;;8.63;;
66487;SDS011;53304;54.550;18.526;2022-10-31T14:00:23;12.18;;;8.13;;
66487;SDS011;53304;54.550;18.526;2022-10-31T14:02:53;12.20;;;8.43;;
66487;SDS011;53304;54.550;18.526;2022-10-31T14:07:59;13.52;;;8.43;;
66487;SDS011;53304;54.550;18.526;2022-10-31T14:10:31;11.80;;;8.65;;
66487;SDS011;53304;54.550;18.526;2022-10-31T14:13:08;11.88;;;7.63;;
66487;SDS011;53304;54.550;18.526;2022-10-31T14:15:56;11.82;;;8.55;;
66487;SDS011;53304;54.550;18.526;2022-10-31T14:18:48;13.55;;;8.20;;
66487;SDS011;53304;54.550;18.526;2022-10-31T14:21:58;12.65;;;8.27;;
66487;SDS011;53304;54.550;18.526;2022-10-31T14:24:02;14.52;;;8.35;;
66487;SDS011;53304;54.550;18.526;2022-10-31T14:26:57;12.68;;;8.20;;
66487;SDS011;53304;54.550;18.526;2022-10-31T14:31:55;11.98;;;7.70;;
66487;SDS011;53304;54.550;18.526;2022-10-31T14:42:49;14.07;;;8.75;;
66487;SDS011;53304;54.550;18.526;2022-10-31T14:45:30;13.48;;;8.55;;
66487;SDS011;53304;54.550;18.526;2022-10-31T14:50:58;13.65;;;8.27;;
66487;SDS011;53304;54.550;18.526;2022-10-31T14:53:26;12.98;;;8.20;;
66487;SDS011;53304;54.550;18.526;2022-10-31T14:55:53;11.68;;;8.23;;
66487;SDS011;53304;54.550;18.526;2022-10-31T14:58:30;13.95;;;8.55;;
66487;SDS011;53304;54.550;18.526;2022-10-31T15:01:02;11.85;;;7.82;;
66487;SDS011;53304;54.550;18.526;2022-10-31T15:05:59;12.93;;;8.02;;
66487;SDS011;53304;54.550;18.526;2022-10-31T15:10:55;11.55;;;8.35;;
66487;SDS011;53304;54.550;18.526;2022-10-31T15:13:21;12.98;;;8.20;;
66487;SDS011;53304;54.550;18.526;2022-10-31T15:15:49;11.98;;;8.32;;
66487;SDS011;53304;54.550;18.526;2022-10-31T15:18:26;12.95;;;8.45;;
66487;SDS011;53304;54.550;18.526;2022-10-31T15:20:57;11.43;;;7.63;;
66487;SDS011;53304;54.550;18.526;2022-10-31T15:23:26;13.32;;;8.15;;
66487;SDS011;53304;54.550;18.526;2022-10-31T15:26:00;12.68;;;8.30;;
66487;SDS011;53304;54.550;18.526;2022-10-31T15:28:31;11.95;;;8.45;;
66487;SDS011;53304;54.550;18.526;2022-10-31T15:31:00;13.35;;;8.40;;
66487;SDS011;53304;54.550;18.526;2022-10-31T15:33:27;11.65;;;7.55;;
66487;SDS011;53304;54.550;18.526;2022-10-31T15:35:54;13.20;;;8.25;;
66487;SDS011;53304;54.550;18.526;2022-10-31T15:38:21;12.13;;;7.85;;
66487;SDS011;53304;54.550;18.526;2022-10-31T15:41:00;12.60;;;7.80;;
66487;SDS011;53304;54.550;18.526;2022-10-31T15:43:29;12.25;;;8.32;;
66487;SDS011;53304;54.550;18.526;2022-10-31T15:46:03;11.98;;;7.93;;
66487;SDS011;53304;54.550;18.526;2022-10-31T15:48:29;12.07;;;7.93;;
66487;SDS011;53304;54.550;18.526;2022-10-31T15:50:59;12.45;;;7.90;;
66487;SDS011;53304;54.550;18.526;2022-10-31T15:54:10;12.07;;;8.07;;
66487;SDS011;53304;54.550;18.526;2022-10-31T15:56:22;12.95;;;7.50;;
66487;SDS011;53304;54.550;18.526;2022-10-31T15:58:50;11.30;;;7.53;;
66487;SDS011;53304;54.550;18.526;2022-10-31T16:01:26;13.95;;;8.25;;
66487;SDS011;53304;54.550;18.526;2022-10-31T16:04:35;13.98;;;7.97;;
66487;SDS011;53304;54.550;18.526;2022-10-31T16:06:55;11.98;;;8.10;;
66487;SDS011;53304;54.550;18.526;2022-10-31T16:09:53;12.75;;;8.05;;
66487;SDS011;53304;54.550;18.526;2022-10-31T16:12:21;13.98;;;8.07;;
66487;SDS011;53304;54.550;18.526;2022-10-31T16:14:50;11.90;;;7.82;;
66487;SDS011;53304;54.550;18.526;2022-10-31T16:17:17;10.50;;;7.50;;
66487;SDS011;53304;54.550;18.526;2022-10-31T16:20:04;12.00;;;7.40;;
66487;SDS011;53304;54.550;18.526;2022-10-31T16:22:35;13.85;;;8.32;;
66487;SDS011;53304;54.550;18.526;2022-10-31T16:27:37;10.70;;;7.55;;
66487;SDS011;53304;54.550;18.526;2022-10-31T16:30:25;11.10;;;7.72;;
66487;SDS011;53304;54.550;18.526;2022-10-31T16:32:58;10.98;;;7.53;;
66487;SDS011;53304;54.550;18.526;2022-10-31T16:37:59;11.50;;;7.50;;
66487;SDS011;53304;54.550;18.526;2022-10-31T16:40:25;11.68;;;8.07;;
66487;SDS011;53304;54.550;18.526;2022-10-31T16:42:50;12.45;;;7.90;;
66487;SDS011;53304;54.550;18.526;2022-10-31T16:45:22;12.10;;;7.75;;
66487;SDS011;53304;54.550;18.526;2022-10-31T16:50:15;12.52;;;7.80;;
66487;SDS011;53304;54.550;18.526;2022-10-31T16:52:43;11.48;;;7.28;;
66487;SDS011;53304;54.550;18.526;2022-10-31T16:55:15;11.52;;;7.63;;
66487;SDS011;53304;54.550;18.526;2022-10-31T16:57:43;11.68;;;7.75;;
66487;SDS011;53304;54.550;18.526;2022-10-31T17:00:14;11.75;;;7.40;;
66487;SDS011;53304;54.550;18.526;2022-10-31T17:02:45;11.43;;;7.90;;
66487;SDS011;53304;54.550;18.526;2022-10-31T17:05:16;11.10;;;7.47;;
66487;SDS011;53304;54.550;18.526;2022-10-31T17:07:42;11.82;;;8.07;;
66487;SDS011;53304;54.550;18.526;2022-10-31T17:10:11;11.57;;;7.75;;
66487;SDS011;53304;54.550;18.526;2022-10-31T17:12:38;10.75;;;7.15;;
66487;SDS011;53304;54.550;18.526;2022-10-31T17:15:18;11.18;;;7.70;;
66487;SDS011;53304;54.550;18.526;2022-10-31T17:17:48;11.48;;;7.40;;
66487;SDS011;53304;54.550;18.526;2022-10-31T17:20:22;13.07;;;7.88;;
66487;SDS011;53304;54.550;18.526;2022-10-31T17:22:54;10.50;;;7.57;;
66487;SDS011;53304;54.550;18.526;2022-10-31T17:25:29;11.48;;;7.60;;
66487;SDS011;53304;54.550;18.526;2022-10-31T17:27:59;11.75;;;7.65;;